KSVE/SVE METAR and TAF weather

Enter ICAO airport designator
Station Type Date Time Source
KSVE METAR 2022/07/01 01:15 UTC NOAA

KSVE 010115Z AUTO 22013G18KT 10SM CLR 28/M05 A3005 RMK AO2


Station Type Date Time Source
KSVE Decoded METAR 2022/07/01 01:15 UTC NOAA

Susanville Municipal, CA, United States (KSVE) 40-23N 120-34W
Jun 30, 2022 - 09:15 PM EDT / 2022.07.01 0115 UTC
Wind: from the SW (220 degrees) at 15 MPH (13 KT) gusting to 21 MPH (18 KT):0
Visibility: 10 mile(s):0
Sky conditions: clear
Temperature: 82 F (28 C)
Dew Point: 23 F (-5 C)
Relative Humidity: 11%
Pressure (altimeter): 30.05 in. Hg (1017 hPa)
ob: KSVE 010115Z AUTO 22013G18KT 10SM CLR 28/M05 A3005 RMK AO2
cycle: 1

Station Type Date Time Source
KSVE TAF UTC NOAA

Error!

Example: see airport list